Terminal Aerodrome Forecast
Issued by NWS

Home | Current Version | Previous Version | Text Only | Print | Product List | Glossary On
Versions: 1 2 3 4 5 6 7 8 9 10 11 12 13 14 15 16
000
FTPA31 PHFO 272325
TAFHKO
TAF
PHKO 272325Z 2800/2824 22009KT P6SM SCT060
     FM280300 17007KT P6SM FEW025 BKN060
     FM280800 12005KT P6SM FEW060
     FM282000 23009KT P6SM SCT060=

USA.gov is the U.S. government's official web portal to all federal, state and local government web resources and services.